Time;durP1;ratioP1;P1;durP2;ratioP2;P2;SDS_P1;SDS_P2;PMS_P1;PMS_P2;Temp;Humidity;BMP_temperature;BMP_pressure;BME280_temperature;BME280_humidity;BME280_pressure;Samples;Min_cycle;Max_cycle;Signal;HPM_P1;HPM_P2
2022/08/21 00:00:33;;;;;;;4.47;1.80;;;17.90;92.80;;;;;;4215051;28;20050;-84
2022/08/21 00:02:35;;;;;;;5.53;1.83;;;17.80;92.80;;;;;;4214569;28;20480;-84
2022/08/21 00:04:35;;;;;;;4.85;2.10;;;17.80;92.80;;;;;;4213567;28;20043;-84
2022/08/21 00:06:37;;;;;;;10.27;2.08;;;17.70;92.90;;;;;;4213517;28;20044;-84
2022/08/21 00:08:39;;;;;;;5.03;1.40;;;17.70;93.00;;;;;;4214939;28;20059;-84
2022/08/21 00:10:42;;;;;;;5.05;1.80;;;17.60;93.00;;;;;;4213443;28;20051;-84
2022/08/21 00:12:43;;;;;;;4.20;1.63;;;17.60;93.10;;;;;;4214861;28;20056;-84
2022/08/21 00:14:44;;;;;;;5.57;2.58;;;17.50;93.30;;;;;;4213103;28;20082;-83
2022/08/21 00:16:44;;;;;;;3.22;1.50;;;17.40;93.40;;;;;;4213547;28;20135;-84
2022/08/21 00:18:45;;;;;;;5.05;1.67;;;17.40;93.60;;;;;;4215014;28;20044;-84
2022/08/21 00:20:47;;;;;;;5.63;1.70;;;17.30;93.70;;;;;;4214247;28;20136;-85
2022/08/21 00:22:49;;;;;;;3.15;1.92;;;17.30;93.80;;;;;;4214735;28;20105;-85
2022/08/21 00:24:50;;;;;;;4.70;1.67;;;17.20;93.90;;;;;;4213653;28;20520;-85
2022/08/21 00:26:51;;;;;;;6.30;2.08;;;17.20;94.00;;;;;;4214802;28;20067;-85
2022/08/21 00:28:52;;;;;;;3.58;1.65;;;17.10;94.10;;;;;;4213206;28;20117;-84
2022/08/21 00:30:53;;;;;;;8.32;2.17;;;17.10;94.30;;;;;;4213479;28;20048;-85
2022/08/21 00:32:56;;;;;;;7.63;2.00;;;17.10;94.40;;;;;;4213494;28;20496;-85
2022/08/21 00:34:58;;;;;;;6.15;2.50;;;17.10;94.60;;;;;;4213323;28;20137;-85
2022/08/21 00:36:58;;;;;;;7.13;1.92;;;17.00;94.60;;;;;;4196161;28;20044;-85
2022/08/21 00:38:59;;;;;;;4.90;2.25;;;17.00;94.80;;;;;;4214465;28;20091;-85
2022/08/21 00:41:06;;;;;;;6.15;1.65;;;17.00;94.90;;;;;;4213516;28;20458;-85
2022/08/21 00:43:09;;;;;;;5.18;1.90;;;17.00;94.90;;;;;;4214544;28;20100;-85
2022/08/21 00:45:12;;;;;;;4.28;1.60;;;16.90;94.90;;;;;;4214550;28;20052;-85
2022/08/21 00:47:13;;;;;;;5.30;1.90;;;16.90;95.10;;;;;;4214428;28;20119;-85
2022/08/21 00:49:14;;;;;;;5.20;1.70;;;16.90;95.10;;;;;;4196203;28;20053;-85
2022/08/21 00:51:25;;;;;;;6.25;2.22;;;16.80;95.30;;;;;;4213732;28;20052;-85
2022/08/21 00:53:27;;;;;;;5.18;2.10;;;16.80;95.20;;;;;;4213424;28;20051;-85
2022/08/21 00:55:29;;;;;;;6.10;2.10;;;16.80;95.10;;;;;;4214507;28;20048;-85
2022/08/21 00:57:35;;;;;;;6.03;2.67;;;16.70;95.30;;;;;;4213993;28;20052;-84
2022/08/21 00:59:39;;;;;;;6.68;2.05;;;16.70;95.50;;;;;;4214242;28;20071;-85
2022/08/21 01:01:40;;;;;;;4.70;2.08;;;16.70;95.50;;;;;;4212734;28;20135;-83
2022/08/21 01:03:41;;;;;;;4.75;2.20;;;16.70;95.70;;;;;;4214409;28;20044;-84
2022/08/21 01:05:42;;;;;;;5.00;1.70;;;16.70;95.70;;;;;;4214483;28;20180;-84
2022/08/21 01:07:44;;;;;;;8.32;2.20;;;16.70;95.90;;;;;;4212141;28;20428;-85
2022/08/21 01:09:46;;;;;;;5.10;2.55;;;16.70;95.90;;;;;;4212190;28;20052;-85
2022/08/21 01:11:49;;;;;;;7.32;1.85;;;16.70;96.00;;;;;;4214496;28;20113;-84
2022/08/21 01:13:51;;;;;;;8.85;2.72;;;16.70;96.10;;;;;;4216579;28;20091;-84
2022/08/21 01:15:54;;;;;;;4.55;2.08;;;16.60;96.10;;;;;;4216446;28;20044;-85
2022/08/21 01:17:55;;;;;;;9.13;2.15;;;16.60;96.30;;;;;;4216583;28;20093;-85
2022/08/21 01:20:00;;;;;;;7.82;2.55;;;16.60;96.40;;;;;;4215032;28;20558;-84
2022/08/21 01:22:03;;;;;;;6.47;2.20;;;16.60;96.60;;;;;;4216147;28;20123;-85
2022/08/21 01:24:04;;;;;;;6.50;2.15;;;16.60;96.70;;;;;;4215953;28;20520;-85
2022/08/21 01:26:06;;;;;;;8.07;2.70;;;16.60;96.70;;;;;;4216020;28;20044;-85
2022/08/21 01:28:13;;;;;;;5.97;2.28;;;16.60;96.90;;;;;;4216968;28;20043;-84
2022/08/21 01:30:18;;;;;;;8.68;3.10;;;16.50;96.90;;;;;;4217518;28;20491;-85
2022/08/21 01:32:20;;;;;;;4.47;2.30;;;16.50;96.90;;;;;;4216356;28;20108;-85
2022/08/21 01:34:21;;;;;;;4.60;1.95;;;16.50;97.00;;;;;;4215804;28;20051;-85
2022/08/21 01:36:23;;;;;;;6.82;1.85;;;16.50;97.00;;;;;;4215777;28;20404;-84
2022/08/21 01:38:25;;;;;;;3.35;1.90;;;16.40;97.10;;;;;;4217404;28;20507;-84
2022/08/21 01:40:26;;;;;;;7.97;2.78;;;16.40;97.10;;;;;;4215637;28;20497;-84
2022/08/21 01:42:26;;;;;;;9.07;2.35;;;16.40;97.20;;;;;;4215889;28;20149;-84
2022/08/21 01:44:27;;;;;;;5.80;2.08;;;16.40;97.30;;;;;;4215907;28;20040;-85
2022/08/21 01:46:28;;;;;;;10.52;2.03;;;16.40;97.40;;;;;;4216130;28;20544;-84
2022/08/21 01:48:30;;;;;;;5.05;1.90;;;16.40;97.40;;;;;;4215904;28;20051;-85
2022/08/21 01:50:31;;;;;;;9.65;2.58;;;16.40;97.50;;;;;;4216624;28;20044;-85
2022/08/21 01:52:32;;;;;;;7.15;3.13;;;16.40;97.50;;;;;;4215871;28;20110;-85
2022/08/21 01:54:32;;;;;;;10.43;2.75;;;16.40;97.60;;;;;;4215932;28;20051;-85
2022/08/21 01:56:39;;;;;;;6.82;2.42;;;16.30;97.70;;;;;;4215592;28;20048;-85
2022/08/21 01:58:42;;;;;;;5.05;1.90;;;16.30;97.80;;;;;;4199073;28;20093;-85
2022/08/21 02:00:43;;;;;;;6.97;2.95;;;16.30;97.80;;;;;;4216034;28;20060;-85
2022/08/21 02:02:44;;;;;;;3.83;1.92;;;16.30;97.90;;;;;;4215213;28;20117;-85
2022/08/21 02:04:44;;;;;;;7.32;2.22;;;16.30;98.10;;;;;;4215607;28;20102;-85
2022/08/21 02:06:47;;;;;;;7.80;2.67;;;16.20;98.10;;;;;;4198796;28;20078;-85
2022/08/21 02:08:50;;;;;;;5.97;2.88;;;16.20;98.20;;;;;;4216728;28;20441;-85
2022/08/21 02:10:52;;;;;;;3.55;1.92;;;16.20;98.30;;;;;;4216834;28;20098;-85
2022/08/21 02:12:55;;;;;;;7.88;2.47;;;16.10;98.40;;;;;;4216525;28;20161;-85
2022/08/21 02:14:55;;;;;;;7.85;2.80;;;16.10;98.50;;;;;;4215223;28;20040;-85
2022/08/21 02:16:56;;;;;;;7.72;2.35;;;16.10;98.50;;;;;;4216558;28;20127;-85
2022/08/21 02:18:57;;;;;;;6.22;2.10;;;16.10;98.60;;;;;;4216972;28;20056;-84
2022/08/21 02:20:58;;;;;;;6.78;2.30;;;16.10;98.60;;;;;;4215397;28;20416;-84
2022/08/21 02:23:00;;;;;;;5.75;1.92;;;16.10;98.60;;;;;;4216128;28;20569;-85
2022/08/21 02:25:01;;;;;;;6.05;2.65;;;16.10;98.70;;;;;;4214893;28;20043;-83
2022/08/21 02:27:02;;;;;;;9.45;2.70;;;16.10;98.80;;;;;;4216758;28;20432;-83
2022/08/21 02:29:04;;;;;;;6.13;2.20;;;16.10;98.90;;;;;;4216724;28;20071;-84
2022/08/21 02:31:06;;;;;;;5.85;2.08;;;16.00;99.00;;;;;;4215140;28;20549;-84
2022/08/21 02:33:07;;;;;;;6.20;2.40;;;16.00;99.10;;;;;;4198489;28;20494;-84
2022/08/21 02:35:09;;;;;;;5.80;2.00;;;16.00;99.20;;;;;;4215800;28;20093;-84
2022/08/21 02:37:11;;;;;;;7.82;3.13;;;16.00;99.40;;;;;;4216567;28;20112;-84
2022/08/21 02:39:13;;;;;;;10.93;3.17;;;16.00;99.50;;;;;;4198144;28;20505;-84
2022/08/21 02:41:18;;;;;;;6.82;2.67;;;15.90;99.60;;;;;;4216503;28;20476;-84
2022/08/21 02:43:21;;;;;;;6.88;2.70;;;15.90;99.50;;;;;;4216176;28;20087;-85
2022/08/21 02:45:21;;;;;;;7.00;2.75;;;15.90;99.60;;;;;;4215943;28;20048;-84
2022/08/21 02:47:22;;;;;;;5.93;2.75;;;15.90;99.60;;;;;;4214505;28;20129;-84
2022/08/21 02:49:23;;;;;;;11.27;2.50;;;15.90;99.70;;;;;;4214890;28;20075;-84
2022/08/21 02:51:24;;;;;;;6.43;2.22;;;15.90;99.80;;;;;;4198186;28;20056;-84
2022/08/21 02:53:26;;;;;;;7.93;2.72;;;15.90;99.90;;;;;;4215921;28;20052;-85
2022/08/21 02:55:30;;;;;;;8.38;2.55;;;15.90;99.90;;;;;;4215073;28;20508;-85
2022/08/21 02:57:32;;;;;;;8.45;2.53;;;15.90;99.90;;;;;;4215192;28;20075;-85
2022/08/21 02:59:33;;;;;;;5.25;2.30;;;15.90;99.90;;;;;;4215762;28;20070;-84
2022/08/21 03:01:37;;;;;;;8.20;2.53;;;15.80;99.90;;;;;;4214393;28;20047;-84
2022/08/21 03:03:41;;;;;;;8.55;3.92;;;15.90;99.90;;;;;;4214046;28;20063;-84
2022/08/21 03:05:42;;;;;;;7.28;2.45;;;15.90;99.90;;;;;;4213607;28;20042;-84
2022/08/21 03:07:46;;;;;;;6.57;2.20;;;15.90;99.90;;;;;;4213760;28;20056;-84
2022/08/21 03:09:46;;;;;;;9.77;3.45;;;15.90;99.90;;;;;;4214278;28;20044;-84
2022/08/21 03:11:48;;;;;;;9.45;2.67;;;15.80;99.90;;;;;;4213777;28;20087;-84
2022/08/21 03:13:49;;;;;;;6.55;2.75;;;15.90;99.90;;;;;;4214031;28;20048;-85
2022/08/21 03:15:50;;;;;;;5.78;2.63;;;15.90;99.90;;;;;;4214262;28;20404;-84
2022/08/21 03:17:51;;;;;;;9.55;2.72;;;15.90;99.90;;;;;;4214346;28;20048;-84
2022/08/21 03:19:52;;;;;;;11.68;3.30;;;15.90;99.90;;;;;;4213450;28;20056;-83
2022/08/21 03:21:52;;;;;;;6.75;2.30;;;15.90;99.90;;;;;;4215750;28;20038;-83
2022/08/21 03:23:53;;;;;;;11.60;2.95;;;15.90;99.90;;;;;;4215876;28;20044;-85
2022/08/21 03:25:54;;;;;;;4.40;1.85;;;16.00;99.90;;;;;;4215700;28;20118;-84
2022/08/21 03:27:56;;;;;;;12.13;2.28;;;16.00;99.90;;;;;;4213855;28;20047;-85
2022/08/21 03:29:57;;;;;;;7.72;2.95;;;16.00;99.90;;;;;;4213402;28;20036;-84
2022/08/21 03:31:59;;;;;;;7.78;2.70;;;16.00;99.90;;;;;;4213642;28;20044;-84
2022/08/21 03:33:59;;;;;;;11.43;3.20;;;16.00;99.90;;;;;;4195824;28;20051;-84
2022/08/21 03:36:05;;;;;;;8.77;2.55;;;16.00;99.80;;;;;;4213418;28;20119;-84
2022/08/21 03:38:06;;;;;;;7.78;2.10;;;16.00;99.90;;;;;;4212922;28;20496;-85
2022/08/21 03:40:08;;;;;;;6.72;2.40;;;16.10;99.80;;;;;;4213238;28;20100;-85
2022/08/21 03:42:09;;;;;;;6.85;2.03;;;16.00;99.70;;;;;;4213151;28;20099;-85
2022/08/21 03:44:10;;;;;;;4.47;2.08;;;16.10;99.60;;;;;;4213262;28;20056;-85
2022/08/21 03:46:10;;;;;;;10.75;2.20;;;16.10;99.50;;;;;;4214234;28;20036;-85
2022/08/21 03:48:11;;;;;;;5.22;2.15;;;16.10;99.40;;;;;;4215217;28;20078;-84
2022/08/21 03:50:12;;;;;;;5.32;2.25;;;16.10;99.40;;;;;;4213423;28;20059;-84
2022/08/21 03:52:13;;;;;;;8.55;2.47;;;16.10;99.40;;;;;;4213681;28;20056;-85
2022/08/21 03:54:14;;;;;;;6.47;2.10;;;16.10;99.40;;;;;;4213648;28;20043;-83
2022/08/21 03:56:16;;;;;;;4.55;1.85;;;16.10;99.40;;;;;;4214642;28;20055;-84
2022/08/21 03:58:22;;;;;;;5.07;2.15;;;16.10;99.30;;;;;;4215006;28;20086;-84
2022/08/21 04:00:23;;;;;;;7.43;2.30;;;16.10;99.30;;;;;;4213463;28;20543;-85
2022/08/21 04:02:25;;;;;;;5.90;1.73;;;16.10;99.30;;;;;;4196554;28;20048;-84
2022/08/21 04:04:27;;;;;;;6.30;2.60;;;16.10;99.20;;;;;;4214176;28;20048;-84
2022/08/21 04:06:27;;;;;;;6.43;2.80;;;16.10;99.20;;;;;;4215193;28;20078;-84
2022/08/21 04:08:28;;;;;;;10.15;2.10;;;16.10;99.20;;;;;;4213284;28;20052;-84
2022/08/21 04:10:31;;;;;;;9.93;2.10;;;16.10;99.20;;;;;;4213846;28;20048;-84
2022/08/21 04:12:33;;;;;;;6.97;2.20;;;16.10;99.20;;;;;;4213427;28;20096;-84
2022/08/21 04:14:34;;;;;;;5.70;1.77;;;16.10;99.20;;;;;;4214235;28;20050;-85
2022/08/21 04:16:34;;;;;;;9.63;2.35;;;16.10;99.20;;;;;;4214653;28;20408;-84
2022/08/21 04:18:35;;;;;;;8.98;2.58;;;16.10;99.30;;;;;;4213400;28;20507;-84
2022/08/21 04:20:36;;;;;;;10.70;2.78;;;16.10;99.20;;;;;;4214333;28;20056;-84
2022/08/21 04:22:37;;;;;;;11.23;2.05;;;16.10;99.20;;;;;;4213415;28;20473;-84
2022/08/21 04:24:38;;;;;;;6.90;2.42;;;16.10;99.20;;;;;;4213011;28;20046;-85
2022/08/21 04:26:39;;;;;;;5.65;2.60;;;16.10;99.10;;;;;;4214614;28;20060;-85
2022/08/21 04:28:41;;;;;;;8.77;2.28;;;16.10;99.00;;;;;;4214555;28;20488;-85
2022/08/21 04:30:43;;;;;;;5.82;2.60;;;16.10;99.10;;;;;;4213051;28;20051;-85
2022/08/21 04:32:48;;;;;;;5.97;2.22;;;16.20;99.10;;;;;;4214790;28;20046;-85
2022/08/21 04:34:49;;;;;;;8.65;3.03;;;16.10;99.10;;;;;;4213141;28;20089;-85
2022/08/21 04:36:50;;;;;;;6.13;2.05;;;16.20;99.10;;;;;;4213513;28;20051;-85
2022/08/21 04:38:51;;;;;;;8.20;2.25;;;16.10;99.10;;;;;;4214384;28;20043;-84
2022/08/21 04:40:52;;;;;;;6.55;2.40;;;16.10;99.10;;;;;;4213324;28;20055;-84
2022/08/21 04:43:00;;;;;;;10.55;2.97;;;16.10;99.20;;;;;;4223594;28;20028;-84
2022/08/21 04:45:01;;;;;;;6.47;3.05;;;16.10;99.20;;;;;;4234148;28;20421;-84
2022/08/21 04:47:03;;;;;;;8.10;2.22;;;16.10;99.00;;;;;;4236408;28;20059;-84
2022/08/21 04:49:03;;;;;;;6.72;1.80;;;16.10;99.10;;;;;;4238359;28;20036;-84
2022/08/21 04:51:11;;;;;;;8.18;2.70;;;16.10;99.20;;;;;;4237450;28;20039;-84
2022/08/21 04:53:20;;;;;;;6.82;2.03;;;16.10;99.10;;;;;;4230335;28;20443;-85
2022/08/21 04:55:22;;;;;;;4.18;2.08;;;16.10;99.10;;;;;;4217597;28;20044;-84
2022/08/21 04:57:23;;;;;;;5.38;1.88;;;16.20;99.10;;;;;;4218976;28;20473;-83
2022/08/21 04:59:27;;;;;;;6.47;2.65;;;16.10;99.20;;;;;;4217192;28;20127;-83
2022/08/21 05:01:30;;;;;;;8.07;2.83;;;16.20;99.20;;;;;;4216902;28;20052;-84
2022/08/21 05:03:33;;;;;;;9.05;2.50;;;16.20;99.20;;;;;;4218374;28;20044;-84
2022/08/21 05:05:34;;;;;;;6.07;2.17;;;16.20;99.30;;;;;;4216414;28;20056;-84
2022/08/21 05:07:36;;;;;;;8.77;2.30;;;16.20;99.30;;;;;;4217070;28;20059;-83
2022/08/21 05:09:38;;;;;;;4.18;2.10;;;16.20;99.40;;;;;;4217142;28;20059;-83
2022/08/21 05:11:39;;;;;;;6.53;2.00;;;16.20;99.60;;;;;;4217007;28;20042;-83
2022/08/21 05:13:43;;;;;;;6.50;2.15;;;16.20;99.60;;;;;;4218327;28;20050;-84
2022/08/21 05:15:44;;;;;;;8.27;2.78;;;16.20;99.60;;;;;;4216769;28;20056;-84
2022/08/21 05:17:45;;;;;;;8.23;2.70;;;16.20;99.70;;;;;;4217132;28;20051;-83
2022/08/21 05:19:45;;;;;;;6.80;2.35;;;16.20;99.80;;;;;;4216917;28;20736;-83
2022/08/21 05:21:49;;;;;;;9.07;2.20;;;16.20;99.90;;;;;;4216213;28;20090;-83
2022/08/21 05:23:50;;;;;;;7.07;2.03;;;16.20;99.90;;;;;;4199683;28;20055;-84
2022/08/21 05:25:53;;;;;;;7.15;2.30;;;16.30;99.90;;;;;;4216143;28;20523;-83
2022/08/21 05:27:53;;;;;;;7.03;1.85;;;16.30;99.90;;;;;;4216313;28;20036;-84
2022/08/21 05:29:54;;;;;;;11.07;2.53;;;16.30;99.90;;;;;;4216490;28;20136;-84
2022/08/21 05:31:55;;;;;;;6.43;2.30;;;16.30;99.90;;;;;;4217288;28;20040;-83
2022/08/21 05:33:56;;;;;;;9.00;2.80;;;16.40;99.90;;;;;;4217409;28;20484;-84
2022/08/21 05:35:57;;;;;;;8.35;2.20;;;16.40;99.90;;;;;;4216389;28;20086;-84
2022/08/21 05:37:59;;;;;;;10.98;2.63;;;16.40;99.90;;;;;;4217540;28;20040;-84
2022/08/21 05:40:01;;;;;;;8.57;2.20;;;16.50;99.90;;;;;;4199249;28;20052;-84
2022/08/21 05:42:02;;;;;;;6.85;2.35;;;16.50;99.90;;;;;;4217065;28;20036;-84
2022/08/21 05:44:03;;;;;;;8.02;2.20;;;16.50;99.90;;;;;;4217260;28;20124;-84
2022/08/21 05:46:05;;;;;;;7.47;2.70;;;16.60;99.90;;;;;;4215785;28;20546;-84
2022/08/21 05:48:24;;;;;;;10.80;2.10;;;16.60;99.90;;;;;;4217094;28;20052;-84
2022/08/21 05:50:25;;;;;;;11.45;2.35;;;16.70;99.90;;;;;;4215634;28;20051;-84
2022/08/21 05:52:26;;;;;;;14.98;3.28;;;16.70;99.90;;;;;;4217331;28;20500;-84
2022/08/21 05:54:27;;;;;;;12.52;3.45;;;16.80;99.90;;;;;;4216645;28;20044;-84
2022/08/21 05:56:28;;;;;;;10.90;2.40;;;16.80;99.90;;;;;;4215873;28;20476;-83
2022/08/21 05:58:29;;;;;;;13.18;2.50;;;16.80;99.90;;;;;;4215995;28;20100;-84
2022/08/21 06:00:30;;;;;;;4.32;2.05;;;16.90;99.90;;;;;;4197434;28;20044;-84
2022/08/21 06:02:31;;;;;;;7.57;2.20;;;16.90;99.90;;;;;;4215942;28;20524;-84
2022/08/21 06:04:36;;;;;;;7.90;2.40;;;16.90;99.90;;;;;;4216189;28;20041;-84
2022/08/21 06:06:37;;;;;;;8.10;2.13;;;17.00;99.90;;;;;;4215368;28;20123;-84
2022/08/21 06:08:37;;;;;;;6.93;2.33;;;17.10;99.90;;;;;;4215433;28;20497;-84
2022/08/21 06:10:38;;;;;;;7.40;2.30;;;17.10;99.90;;;;;;4215714;28;20575;-84
2022/08/21 06:12:39;;;;;;;7.63;2.20;;;17.20;99.90;;;;;;4216696;28;20128;-84
2022/08/21 06:14:41;;;;;;;12.82;3.33;;;17.20;99.90;;;;;;4216407;28;20610;-83
2022/08/21 06:16:43;;;;;;;6.93;2.33;;;17.20;99.90;;;;;;4214828;28;20048;-83
2022/08/21 06:18:45;;;;;;;8.13;3.03;;;17.20;99.90;;;;;;4214319;28;20125;-83
2022/08/21 06:20:47;;;;;;;6.68;2.22;;;17.30;99.90;;;;;;4215593;28;20059;-84
2022/08/21 06:22:48;;;;;;;14.18;3.78;;;17.40;99.90;;;;;;4213867;28;20046;-84
2022/08/21 06:24:49;;;;;;;11.85;2.38;;;17.40;99.90;;;;;;4214402;28;20518;-84
2022/08/21 06:26:49;;;;;;;10.05;2.00;;;17.50;99.90;;;;;;4214416;28;20446;-83
2022/08/21 06:28:50;;;;;;;8.13;2.85;;;17.60;99.90;;;;;;4213899;28;20135;-84
2022/08/21 06:30:51;;;;;;;16.88;2.60;;;17.60;99.90;;;;;;4214110;28;20047;-84
2022/08/21 06:32:53;;;;;;;4.90;1.88;;;17.70;99.90;;;;;;4198305;28;20462;-84
2022/08/21 06:34:54;;;;;;;5.28;2.10;;;17.80;99.90;;;;;;4216568;28;20436;-84
2022/08/21 06:36:55;;;;;;;11.27;2.30;;;17.80;99.90;;;;;;4215943;28;20097;-84
2022/08/21 06:38:56;;;;;;;6.20;1.90;;;17.80;99.90;;;;;;4198415;28;20098;-84
2022/08/21 06:40:58;;;;;;;6.20;2.25;;;17.90;99.90;;;;;;4215116;28;20048;-84
2022/08/21 06:43:07;;;;;;;12.32;3.10;;;18.00;99.90;;;;;;4216310;28;20717;-85
2022/08/21 06:45:08;;;;;;;5.90;2.25;;;18.10;99.90;;;;;;4216111;28;20036;-83
2022/08/21 06:47:09;;;;;;;5.18;2.08;;;18.10;99.90;;;;;;4216579;28;20101;-84
2022/08/21 06:49:11;;;;;;;11.15;2.10;;;18.10;99.90;;;;;;4216525;28;20940;-84
2022/08/21 06:51:12;;;;;;;4.00;1.77;;;18.20;99.90;;;;;;4216467;28;20079;-84
2022/08/21 06:53:17;;;;;;;9.65;2.65;;;18.30;99.90;;;;;;4214497;28;20048;-84
2022/08/21 06:55:18;;;;;;;9.45;2.08;;;18.30;99.80;;;;;;4214692;28;20133;-84
2022/08/21 06:57:20;;;;;;;5.50;1.85;;;18.30;99.70;;;;;;4214718;28;20048;-84
2022/08/21 06:59:20;;;;;;;4.90;1.70;;;18.40;99.60;;;;;;4214731;28;20089;-84
2022/08/21 07:01:24;;;;;;;7.88;2.50;;;18.40;99.50;;;;;;4214815;28;20461;-83
2022/08/21 07:03:45;;;;;;;15.73;4.00;;;18.50;99.40;;;;;;4215431;28;20085;-84
2022/08/21 07:05:47;;;;;;;9.32;2.00;;;18.60;99.20;;;;;;4198012;28;20044;-84
2022/08/21 07:07:49;;;;;;;4.72;1.65;;;18.60;99.00;;;;;;4215665;28;20052;-84
2022/08/21 07:09:49;;;;;;;6.55;1.90;;;18.70;98.80;;;;;;4215170;28;20101;-90
2022/08/21 07:11:55;;;;;;;11.80;2.10;;;18.80;98.70;;;;;;4215320;28;20396;-86
2022/08/21 07:13:56;;;;;;;7.90;2.10;;;18.90;98.50;;;;;;4214825;28;20083;-87
2022/08/21 07:15:57;;;;;;;7.55;1.95;;;19.00;98.40;;;;;;4215862;28;20040;-86
2022/08/21 07:18:01;;;;;;;4.68;1.85;;;19.10;98.20;;;;;;4215984;28;20127;-86
2022/08/21 07:20:03;;;;;;;4.95;1.35;;;19.20;97.90;;;;;;4215239;28;20048;-86
2022/08/21 07:22:05;;;;;;;6.20;1.60;;;19.20;97.60;;;;;;4197470;28;20447;-86
2022/08/21 07:24:05;;;;;;;8.88;3.00;;;19.30;97.50;;;;;;4215477;28;20116;-88
2022/08/21 07:26:06;;;;;;;3.30;1.30;;;19.30;97.20;;;;;;4214368;28;20053;-85
2022/08/21 07:28:07;;;;;;;3.83;1.80;;;19.40;97.00;;;;;;4215052;28;20059;-85
2022/08/21 07:30:08;;;;;;;4.60;1.42;;;19.50;96.70;;;;;;4214272;28;20048;-87
2022/08/21 07:32:09;;;;;;;8.85;1.70;;;19.50;96.50;;;;;;4214015;28;20059;-87
2022/08/21 07:34:10;;;;;;;5.80;1.52;;;19.60;96.20;;;;;;4214884;28;20043;-86
2022/08/21 07:36:11;;;;;;;6.28;1.58;;;19.80;95.90;;;;;;4214838;28;20512;-84
2022/08/21 07:38:12;;;;;;;5.22;1.35;;;19.90;95.70;;;;;;4214758;28;20377;-84
2022/08/21 07:40:15;;;;;;;10.45;2.30;;;19.90;95.20;;;;;;4214724;28;20075;-87
2022/08/21 07:42:16;;;;;;;8.25;1.45;;;20.00;94.70;;;;;;4214506;28;20484;-85
2022/08/21 07:44:17;;;;;;;5.07;1.83;;;20.00;94.60;;;;;;4214203;28;20074;-84
2022/08/21 07:46:19;;;;;;;5.93;1.27;;;20.10;94.50;;;;;;4213109;28;20123;-90
2022/08/21 07:48:23;;;;;;;6.10;1.70;;;20.20;94.20;;;;;;4208300;28;20048;-84
2022/08/21 07:50:25;;;;;;;4.72;1.42;;;20.20;93.50;;;;;;4212918;28;20044;-86
2022/08/21 07:52:26;;;;;;;5.80;1.17;;;20.30;93.50;;;;;;4214381;28;20040;-84
2022/08/21 07:54:26;;;;;;;6.25;1.45;;;20.30;93.30;;;;;;4212817;28;20064;-85
2022/08/21 07:56:30;;;;;;;5.15;1.50;;;20.40;92.80;;;;;;4212999;28;20048;-85
2022/08/21 07:58:32;;;;;;;5.50;1.00;;;20.40;92.80;;;;;;4213415;28;20051;-86
2022/08/21 08:00:34;;;;;;;4.20;1.10;;;20.60;92.80;;;;;;4212915;28;20051;-86
2022/08/21 08:02:35;;;;;;;4.13;1.10;;;20.70;92.60;;;;;;4213473;28;20089;-86
2022/08/21 08:04:36;;;;;;;5.47;1.42;;;20.80;92.50;;;;;;4214354;28;20488;-86
2022/08/21 08:06:37;;;;;;;10.13;1.50;;;20.90;92.40;;;;;;4195796;28;20040;-86
2022/08/21 08:08:41;;;;;;;5.18;1.52;;;21.10;92.30;;;;;;4202155;28;20043;-86
2022/08/21 08:10:42;;;;;;;5.75;1.45;;;21.20;91.90;;;;;;4213967;28;20488;-85
2022/08/21 08:12:44;;;;;;;4.50;1.42;;;21.30;91.90;;;;;;4200626;28;20420;-85
2022/08/21 08:14:44;;;;;;;9.73;1.98;;;21.40;91.70;;;;;;4230387;28;20043;-86
2022/08/21 08:16:45;;;;;;;4.65;1.48;;;21.60;91.40;;;;;;4230591;28;20478;-85
2022/08/21 08:18:46;;;;;;;6.40;1.67;;;21.60;91.20;;;;;;4231732;28;20039;-85
2022/08/21 08:20:47;;;;;;;4.55;0.98;;;21.60;91.10;;;;;;4231548;28;20404;-86
2022/08/21 08:22:49;;;;;;;6.50;1.02;;;21.70;91.10;;;;;;4220514;28;20051;-86
2022/08/21 08:24:51;;;;;;;6.38;1.13;;;21.80;90.90;;;;;;4213276;28;20130;-86
2022/08/21 08:26:53;;;;;;;6.75;1.23;;;22.00;91.10;;;;;;4213368;28;20086;-86
2022/08/21 08:28:54;;;;;;;7.45;1.67;;;22.10;90.70;;;;;;4214409;28;20064;-86
2022/08/21 08:30:55;;;;;;;7.03;1.75;;;22.20;90.70;;;;;;4213420;28;20047;-87
2022/08/21 08:32:57;;;;;;;9.57;1.42;;;22.20;90.50;;;;;;4214501;28;20479;-89
2022/08/21 08:34:59;;;;;;;5.85;1.50;;;22.10;90.30;;;;;;4214374;28;20055;-84
2022/08/21 08:36:59;;;;;;;6.50;1.50;;;22.20;90.40;;;;;;4212920;28;20508;-84
2022/08/21 08:39:04;;;;;;;6.68;1.35;;;22.20;90.50;;;;;;4214479;28;20051;-84
2022/08/21 08:41:22;;;;;;;5.80;1.38;;;22.30;90.20;;;;;;4213045;28;20060;-84
2022/08/21 08:43:23;;;;;;;7.07;1.48;;;22.40;90.00;;;;;;4214111;28;20047;-84
2022/08/21 08:45:26;;;;;;;5.82;1.30;;;22.50;90.30;;;;;;4212237;28;20508;-84
2022/08/21 08:47:28;;;;;;;4.55;1.23;;;22.70;90.20;;;;;;4213220;28;20054;-85
2022/08/21 08:49:29;;;;;;;10.05;1.73;;;22.70;89.80;;;;;;4212602;28;20123;-84
2022/08/21 08:52:05;;;;;;;6.18;2.08;;;22.70;89.50;;;;;;4213361;28;20385;-84
2022/08/21 08:54:12;;;;;;;6.22;1.70;;;22.80;89.80;;;;;;4208401;28;20111;-85
2022/08/21 08:56:13;;;;;;;7.22;1.30;;;23.00;89.70;;;;;;4213841;28;20039;-83
2022/08/21 08:58:24;;;;;;;5.85;1.42;;;23.20;89.60;;;;;;4214167;28;20048;-83
2022/08/21 09:00:25;;;;;;;5.95;1.58;;;23.20;87.20;;;;;;4212742;28;20055;-86
2022/08/21 09:02:28;;;;;;;7.32;1.67;;;23.20;88.80;;;;;;4212502;28;20472;-90
2022/08/21 09:04:29;;;;;;;8.77;1.63;;;23.20;88.30;;;;;;4213476;28;20523;-87
2022/08/21 09:06:46;;;;;;;8.60;1.90;;;23.30;88.40;;;;;;4214335;28;20056;-85
2022/08/21 09:09:23;;;;;;;9.65;1.77;;;23.50;87.20;;;;;;4214210;28;20505;-85
2022/08/21 09:11:24;;;;;;;6.03;1.88;;;23.50;86.40;;;;;;4213141;28;20105;-83
2022/08/21 09:13:43;;;;;;;6.72;1.40;;;23.70;88.00;;;;;;4214455;28;20059;-84
2022/08/21 09:15:52;;;;;;;9.15;1.70;;;23.90;86.00;;;;;;4214035;28;20040;-86
2022/08/21 09:18:19;;;;;;;5.60;1.90;;;23.50;87.20;;;;;;4212602;28;20055;-86
2022/08/21 09:20:32;;;;;;;8.45;1.80;;;23.50;87.60;;;;;;4210004;28;20040;-85
2022/08/21 09:22:57;;;;;;;8.30;2.13;;;23.40;87.60;;;;;;4202393;28;20099;-84
2022/08/21 09:25:10;;;;;;;9.32;1.70;;;23.60;87.70;;;;;;4196573;28;20131;-84
2022/08/21 09:27:17;;;;;;;9.70;1.27;;;23.80;87.20;;;;;;4185047;28;20537;-87
2022/08/21 09:29:23;;;;;;;6.10;1.73;;;24.00;86.80;;;;;;4195381;28;20109;-88
2022/08/21 09:31:33;;;;;;;7.60;1.58;;;24.30;86.20;;;;;;4195675;28;20037;-85
2022/08/21 09:33:34;;;;;;;8.45;2.67;;;24.40;85.10;;;;;;4212847;28;20063;-85
2022/08/21 09:35:37;;;;;;;3.42;1.13;;;24.50;85.20;;;;;;4188428;28;20051;-86
2022/08/21 09:38:01;;;;;;;8.80;1.98;;;24.60;85.10;;;;;;4199734;28;20049;-86
2022/08/21 09:40:20;;;;;;;9.63;2.25;;;24.60;81.70;;;;;;4214296;28;20063;-84
2022/08/21 09:42:32;;;;;;;9.80;1.80;;;24.70;83.60;;;;;;4222234;28;20085;-84
2022/08/21 09:44:39;;;;;;;9.50;1.98;;;24.60;83.30;;;;;;4218756;28;20293;-86
2022/08/21 09:46:52;;;;;;;10.90;1.60;;;24.80;83.60;;;;;;4217540;28;20158;-87
2022/08/21 09:48:56;;;;;;;8.30;1.63;;;24.70;82.80;;;;;;4198757;28;20044;-86
2022/08/21 09:51:07;;;;;;;8.95;1.70;;;24.90;83.30;;;;;;4217793;28;20484;-85
2022/08/21 09:53:25;;;;;;;7.90;2.33;;;25.10;81.10;;;;;;4199402;28;20059;-86
2022/08/21 09:57:53;;;;;;;6.55;2.03;;;25.40;80.80;;;;;;4216051;28;20058;-86
2022/08/21 09:59:55;;;;;;;9.65;1.73;;;25.40;81.30;;;;;;4216210;28;20044;-84
2022/08/21 10:01:57;;;;;;;5.85;1.20;;;25.40;81.10;;;;;;4214842;28;20123;-85
2022/08/21 10:04:07;;;;;;;7.35;1.60;;;25.50;81.20;;;;;;4214874;28;20496;-84
2022/08/21 10:06:10;;;;;;;5.53;1.50;;;25.80;80.40;;;;;;4215074;28;20127;-84
2022/08/21 10:08:20;;;;;;;7.10;1.35;;;26.00;79.60;;;;;;4215761;28;20381;-85
2022/08/21 10:10:27;;;;;;;8.55;1.60;;;26.10;78.50;;;;;;4215894;28;20040;-84
2022/08/21 10:12:45;;;;;;;8.70;1.25;;;26.20;78.80;;;;;;4215428;28;20048;-84
2022/08/21 10:15:16;;;;;;;6.00;1.52;;;26.40;76.90;;;;;;4215592;28;20047;-83
2022/08/21 10:17:37;;;;;;;9.50;1.25;;;26.30;74.90;;;;;;4215706;28;20400;-85
2022/08/21 10:20:02;;;;;;;6.72;1.42;;;26.30;75.50;;;;;;4215623;28;20055;-84
2022/08/21 10:22:19;;;;;;;4.35;1.30;;;26.00;74.50;;;;;;4215674;28;20044;-85
2022/08/21 10:24:36;;;;;;;3.83;1.52;;;26.00;75.00;;;;;;4215502;28;20043;-85
2022/08/21 10:26:53;;;;;;;7.97;1.10;;;26.20;76.30;;;;;;4215233;28;20492;-85
2022/08/21 10:29:09;;;;;;;7.05;1.55;;;26.40;74.40;;;;;;4197773;28;20484;-84
2022/08/21 10:31:32;;;;;;;6.70;1.77;;;26.80;74.00;;;;;;4215949;28;20077;-85
2022/08/21 10:33:54;;;;;;;7.38;1.30;;;27.00;74.00;;;;;;4213992;28;20048;-85
2022/08/21 10:36:43;;;;;;;7.43;1.55;;;27.20;71.50;;;;;;4215712;28;20076;-85
2022/08/21 10:39:13;;;;;;;6.55;1.60;;;26.80;71.00;;;;;;4164413;28;20050;-85
2022/08/21 10:41:32;;;;;;;5.03;1.20;;;26.30;72.10;;;;;;4180698;28;20041;-85
2022/08/21 10:44:11;;;;;;;6.30;1.60;;;26.00;72.10;;;;;;4191081;28;20063;-86
2022/08/21 10:46:30;;;;;;;4.88;1.10;;;26.00;72.90;;;;;;4215784;28;20036;-87